»·PEaware :: N6750H KMSO-KSBS

N6750H :: KMSO-KSBS

FLIGHT INFORMATION

Flight Status: Arrived
Operator: Privately registered:
United States
More flights under this callsign
Pilot: Yoel G. (22311)
Aircraft: Unknown
(DA62)
More flights by this aircraft type
Origin: KMSO Missoula Intl
United States
Destination: KSBS Steamboat Springs/Adams
United States
More flights between these airports :: More routes between these airports
Route: +GRZLY3 MSO V86 CPN V257 DBS V520 JAC V328 CHE V101 ECHOA
File this flight plan on PilotEdge
Remarks:
Altitude:
(Current/Filed)
17,000ft
Speed:
(Current/Filed)
201kts
Departed: 07-Jan-19 05:22 PM
Arrived: 07-Jan-19 07:57 PM
Distance/Time
Traveled:
495nm/2:35
Distance/Time
To Go:
Arrived

Flight Plot

Page will automatically refresh every two minutes.

Flight plan parsing failed; only flown route is shown


Map Options




Map Legend


Flown Route
Filed Route
Departure Airport
Arrival Airport
Navaid (VOR, NDB)
Fix

Horizontal Profiles

Position Reports

Time Latitude Longitude Heading Altitude Ground
Speed
07-Jan-19 16:47 46.914970 -114.079545 264 3199ft 0kts
07-Jan-19 16:48 46.914970 -114.079545 264 3199ft 0kts
07-Jan-19 16:49 46.914970 -114.079545 264 3199ft 0kts
07-Jan-19 16:50 46.914970 -114.079545 264 3199ft 0kts
07-Jan-19 16:51 46.914970 -114.079545 264 3199ft 0kts
07-Jan-19 16:52 46.914970 -114.079545 264 3199ft 0kts
07-Jan-19 16:53 46.914970 -114.079545 264 3199ft 0kts
07-Jan-19 16:54 46.914970 -114.079545 264 3199ft 0kts
07-Jan-19 16:55 46.914970 -114.079545 265 3199ft 0kts
07-Jan-19 16:56 46.914970 -114.079545 265 3199ft 0kts
07-Jan-19 16:57 46.914970 -114.079545 264 3199ft 0kts
07-Jan-19 16:58 46.914970 -114.079545 265 3199ft 0kts
07-Jan-19 16:59 46.914970 -114.079545 265 3199ft 0kts
07-Jan-19 17:00 46.914970 -114.079545 264 3199ft 0kts
07-Jan-19 17:01 46.914970 -114.079545 265 3199ft 0kts
07-Jan-19 17:02 46.914970 -114.079545 265 3199ft 0kts
07-Jan-19 17:03 46.914970 -114.079545 264 3199ft 0kts
07-Jan-19 17:04 46.914970 -114.079545 265 3199ft 0kts
07-Jan-19 17:05 46.914970 -114.079545 264 3199ft 0kts
07-Jan-19 17:06 46.914970 -114.079545 265 3199ft 0kts
07-Jan-19 17:07 46.914970 -114.079545 265 3199ft 0kts
07-Jan-19 17:08 46.914970 -114.079545 265 3199ft 0kts
07-Jan-19 17:09 46.914970 -114.079545 264 3199ft 0kts
07-Jan-19 17:10 46.914970 -114.079545 264 3199ft 0kts
07-Jan-19 17:11 46.914970 -114.079545 264 3199ft 0kts
07-Jan-19 17:12 46.914970 -114.079545 264 3199ft 0kts
07-Jan-19 17:13 46.914970 -114.079545 264 3199ft 0kts
07-Jan-19 17:14 46.914970 -114.079545 264 3199ft 0kts
07-Jan-19 17:15 46.914970 -114.079545 264 3199ft 0kts
07-Jan-19 17:16 46.913313 -114.081828 219 3199ft 12kts
07-Jan-19 17:17 46.910373 -114.078121 131 3195ft 20kts
07-Jan-19 17:18 46.908871 -114.077192 180 3194ft 0kts
07-Jan-19 17:19 46.908871 -114.077192 180 3194ft 0kts
07-Jan-19 17:20 46.908568 -114.077219 185 3193ft 9kts
07-Jan-19 17:21 46.918635 -114.096330 310 3450ft 110kts
07-Jan-19 17:22 46.934009 -114.124240 311 5057ft 83kts
07-Jan-19 17:23 46.948256 -114.149663 311 6399ft 80kts
07-Jan-19 17:24 46.961985 -114.174166 307 7719ft 77kts
07-Jan-19 17:25 46.947569 -114.186877 142 9003ft 125kts
07-Jan-19 17:26 46.936456 -114.137805 116 10199ft 133kts
07-Jan-19 17:27 46.914474 -114.094459 139 11438ft 132kts
07-Jan-19 17:28 46.889710 -114.054941 145 12649ft 134kts
07-Jan-19 17:29 46.863745 -114.014432 145 13820ft 140kts
07-Jan-19 17:30 46.841480 -113.979732 146 14768ft 145kts
07-Jan-19 17:31 46.813461 -113.936117 147 15908ft 150kts
07-Jan-19 17:32 46.784169 -113.890671 148 16941ft 164kts
07-Jan-19 17:33 46.746270 -113.831990 142 16971ft 223kts
07-Jan-19 17:34 46.702085 -113.763448 142 16966ft 236kts
07-Jan-19 17:35 46.656740 -113.693452 141 16966ft 239kts
07-Jan-19 17:36 46.610871 -113.622825 142 16966ft 240kts
07-Jan-19 17:37 46.564980 -113.552302 141 16967ft 240kts
07-Jan-19 17:38 46.518897 -113.481696 141 16966ft 240kts
07-Jan-19 17:39 46.472793 -113.411269 142 16952ft 241kts
07-Jan-19 17:40 46.426353 -113.340532 142 16916ft 242kts
07-Jan-19 17:41 46.380022 -113.270144 142 16879ft 240kts
07-Jan-19 17:42 46.333967 -113.200359 142 16878ft 239kts
07-Jan-19 17:43 46.288003 -113.130908 142 16880ft 239kts
07-Jan-19 17:44 46.242121 -113.061750 142 16880ft 239kts
07-Jan-19 17:45 46.195771 -112.992077 142 16881ft 240kts
07-Jan-19 17:46 46.149296 -112.922396 142 16882ft 242kts
07-Jan-19 17:47 46.102313 -112.852144 142 16883ft 244kts
07-Jan-19 17:48 46.054875 -112.781371 141 16885ft 246kts
07-Jan-19 17:49 45.999509 -112.739762 182 16885ft 218kts
07-Jan-19 17:50 45.940235 -112.723620 184 16885ft 217kts
07-Jan-19 17:51 45.880938 -112.708257 184 16882ft 216kts
07-Jan-19 17:52 45.821760 -112.693001 184 16883ft 216kts
07-Jan-19 17:53 45.762594 -112.677790 184 16883ft 216kts
07-Jan-19 17:54 45.703638 -112.662656 184 16897ft 215kts
07-Jan-19 17:55 45.644684 -112.647557 184 16914ft 215kts
07-Jan-19 17:56 45.584570 -112.632194 184 16773ft 218kts
07-Jan-19 17:57 45.525359 -112.617075 184 16774ft 216kts
07-Jan-19 17:58 45.466160 -112.602026 184 16775ft 216kts
07-Jan-19 17:59 45.407165 -112.587056 184 16775ft 216kts
07-Jan-19 18:00 45.348141 -112.572101 184 16776ft 216kts
07-Jan-19 18:01 45.288841 -112.557088 184 16835ft 213kts
07-Jan-19 18:02 45.230181 -112.541456 183 16868ft 217kts
07-Jan-19 18:03 45.170956 -112.523910 182 16869ft 218kts
07-Jan-19 18:04 45.111603 -112.506335 182 16869ft 218kts
07-Jan-19 18:05 45.052335 -112.488881 180 16868ft 217kts
07-Jan-19 18:06 44.993824 -112.471629 178 16867ft 214kts
07-Jan-19 18:07 44.935904 -112.454539 177 16867ft 212kts
07-Jan-19 18:08 44.878380 -112.437611 177 16865ft 211kts
07-Jan-19 18:09 44.821127 -112.420835 177 16865ft 210kts
07-Jan-19 18:10 44.763591 -112.404014 177 16852ft 211kts
07-Jan-19 18:12 44.706388 -112.387306 177 16848ft 210kts
07-Jan-19 18:13 44.649602 -112.370766 177 16848ft 210kts
07-Jan-19 18:14 44.591840 -112.353972 177 16848ft 210kts
07-Jan-19 18:15 44.534609 -112.337357 178 16841ft 209kts
07-Jan-19 18:16 44.478098 -112.321000 178 16841ft 208kts
07-Jan-19 18:17 44.421280 -112.304578 178 16871ft 207kts
07-Jan-19 18:18 44.364725 -112.288271 178 16900ft 208kts
07-Jan-19 18:19 44.308079 -112.271967 178 16924ft 208kts
07-Jan-19 18:20 44.251317 -112.255662 178 16925ft 209kts
07-Jan-19 18:21 44.194417 -112.239342 178 16925ft 209kts
07-Jan-19 18:22 44.137531 -112.223067 178 16925ft 209kts
07-Jan-19 18:23 44.085402 -112.189899 125 16933ft 233kts
07-Jan-19 18:24 44.057664 -112.107588 115 16926ft 235kts
07-Jan-19 18:25 44.031737 -112.023977 115 16927ft 236kts
07-Jan-19 18:26 44.005757 -111.940290 115 16928ft 236kts
07-Jan-19 18:27 43.979699 -111.856612 115 16928ft 236kts
07-Jan-19 18:28 43.953553 -111.772932 115 16929ft 236kts
07-Jan-19 18:28 43.931732 -111.703281 115 16930ft 236kts
07-Jan-19 18:30 43.901051 -111.605682 115 16930ft 236kts
07-Jan-19 18:31 43.874623 -111.521907 115 16929ft 236kts
07-Jan-19 18:31 43.852659 -111.452471 115 16929ft 236kts
07-Jan-19 18:33 43.821780 -111.355194 115 16930ft 236kts
07-Jan-19 18:33 43.799759 -111.286002 116 16923ft 235kts
07-Jan-19 18:34 43.773367 -111.203358 116 16924ft 235kts
07-Jan-19 18:36 43.742473 -111.106927 116 16924ft 235kts
07-Jan-19 18:36 43.720271 -111.037784 117 16914ft 236kts
07-Jan-19 18:37 43.693478 -110.954664 117 16895ft 237kts
07-Jan-19 18:38 43.666422 -110.870987 118 16873ft 238kts
07-Jan-19 18:39 43.639266 -110.787323 118 16873ft 238kts
07-Jan-19 18:40 43.600537 -110.721113 162 16874ft 216kts
07-Jan-19 18:41 43.546296 -110.686152 166 16874ft 214kts
07-Jan-19 18:42 43.491868 -110.653030 167 16874ft 214kts
07-Jan-19 18:43 43.437719 -110.620241 167 16875ft 214kts
07-Jan-19 18:44 43.382985 -110.587164 167 16875ft 214kts
07-Jan-19 18:45 43.328335 -110.554209 167 16875ft 214kts
07-Jan-19 18:46 43.273689 -110.521320 167 16875ft 214kts
07-Jan-19 18:47 43.219094 -110.488530 167 16876ft 214kts
07-Jan-19 18:48 43.164413 -110.455745 167 16884ft 214kts
07-Jan-19 18:49 43.109870 -110.423110 167 16895ft 214kts
07-Jan-19 18:50 43.055224 -110.390482 167 16897ft 214kts
07-Jan-19 18:51 43.000475 -110.357837 167 16884ft 216kts
07-Jan-19 18:52 42.944806 -110.324741 169 16875ft 220kts
07-Jan-19 18:53 42.887879 -110.290980 169 16887ft 225kts
07-Jan-19 18:54 42.829783 -110.256576 169 16894ft 229kts
07-Jan-19 18:55 42.771200 -110.221927 169 16895ft 230kts
07-Jan-19 18:56 42.712449 -110.187256 169 16896ft 231kts
07-Jan-19 18:57 42.653459 -110.152521 169 16895ft 231kts
07-Jan-19 18:58 42.594542 -110.117899 169 16890ft 231kts
07-Jan-19 18:59 42.540339 -110.064928 149 16898ft 244kts
07-Jan-19 19:00 42.488229 -110.006221 148 16899ft 244kts
07-Jan-19 19:01 42.435808 -109.947319 149 16900ft 244kts
07-Jan-19 19:02 42.383382 -109.888559 149 16886ft 245kts
07-Jan-19 19:03 42.330805 -109.829751 148 16867ft 246kts
07-Jan-19 19:04 42.278044 -109.770867 149 16875ft 245kts
07-Jan-19 19:05 42.225575 -109.712445 149 16903ft 245kts
07-Jan-19 19:06 42.172818 -109.653845 149 16897ft 246kts
07-Jan-19 19:07 42.119939 -109.595223 148 16893ft 246kts
07-Jan-19 19:08 42.067033 -109.536703 148 16916ft 246kts
07-Jan-19 19:09 42.014105 -109.478298 149 16923ft 247kts
07-Jan-19 19:10 41.960906 -109.419719 148 16926ft 247kts
07-Jan-19 19:11 41.907977 -109.361530 149 16925ft 243kts
07-Jan-19 19:12 41.855912 -109.304462 150 16912ft 239kts
07-Jan-19 19:13 41.804455 -109.248195 150 16913ft 238kts
07-Jan-19 19:14 41.752909 -109.191932 150 16914ft 238kts
07-Jan-19 19:15 41.701528 -109.135971 150 16915ft 239kts
07-Jan-19 19:16 41.649754 -109.079706 150 16915ft 240kts
07-Jan-19 19:17 41.597897 -109.023456 150 16916ft 241kts
07-Jan-19 19:18 41.552722 -108.953538 135 16917ft 249kts
07-Jan-19 19:19 41.508859 -108.881630 135 16918ft 250kts
07-Jan-19 19:20 41.464679 -108.809383 135 16919ft 250kts
07-Jan-19 19:21 41.420597 -108.737470 136 16920ft 251kts
07-Jan-19 19:22 41.376222 -108.665275 135 16921ft 251kts
07-Jan-19 19:23 41.331944 -108.593378 136 16922ft 251kts
07-Jan-19 19:24 41.287561 -108.521505 135 16923ft 251kts
07-Jan-19 19:25 41.243105 -108.449671 135 16932ft 251kts
07-Jan-19 19:26 41.198552 -108.377864 135 16970ft 251kts
07-Jan-19 19:27 41.154743 -108.307380 136 16986ft 250kts
07-Jan-19 19:28 41.110225 -108.235963 136 17014ft 249kts
07-Jan-19 19:29 41.066306 -108.165621 137 17017ft 247kts
07-Jan-19 19:30 41.021926 -108.093771 136 16443ft 259kts
07-Jan-19 19:31 40.976426 -108.019651 135 15459ft 260kts
07-Jan-19 19:32 40.931426 -107.946573 135 14460ft 254kts
07-Jan-19 19:33 40.889500 -107.878671 135 13515ft 250kts
07-Jan-19 19:34 40.846400 -107.808924 135 13015ft 230kts
07-Jan-19 19:35 40.807257 -107.745875 136 13019ft 220kts
07-Jan-19 19:36 40.769265 -107.684785 136 13018ft 218kts
07-Jan-19 19:37 40.731155 -107.623593 136 13017ft 218kts
07-Jan-19 19:38 40.693443 -107.563153 136 13015ft 218kts
07-Jan-19 19:39 40.655969 -107.503306 135 12695ft 231kts
07-Jan-19 19:40 40.614905 -107.437747 135 12035ft 230kts
07-Jan-19 19:41 40.577597 -107.378338 135 12029ft 217kts
07-Jan-19 19:42 40.540842 -107.319905 136 12019ft 215kts
07-Jan-19 19:43 40.503510 -107.260672 136 12014ft 213kts
07-Jan-19 19:44 40.470936 -107.209077 136 12012ft 212kts
07-Jan-19 19:45 40.433111 -107.149257 136 12010ft 213kts
07-Jan-19 19:46 40.395062 -107.089205 136 12010ft 213kts
07-Jan-19 19:47 40.357101 -107.029407 136 12012ft 213kts
07-Jan-19 19:48 40.348492 -106.951533 87 12010ft 224kts
07-Jan-19 19:49 40.351945 -106.868620 88 11649ft 232kts
07-Jan-19 19:50 40.393061 -106.821369 356 10867ft 190kts
07-Jan-19 19:51 40.440824 -106.818879 339 10293ft 151kts
07-Jan-19 19:52 40.478212 -106.840803 321 9781ft 149kts
07-Jan-19 19:53 40.515928 -106.872224 310 7518ft 152kts
07-Jan-19 19:54 40.538081 -106.880110 143 7622ft 88kts
07-Jan-19 19:55 40.516158 -106.866326 165 6856ft 60kts
07-Jan-19 19:56 40.515894 -106.866095 325 6856ft 19kts
07-Jan-19 19:57 40.518265 -106.867712 148 6843ft 13kts
07-Jan-19 19:58 40.517109 -106.864633 149 6856ft 6kts
07-Jan-19 19:59 40.517015 -106.864541 142 6856ft 0kts

Navigation Log

Ident Type
Flight plan parsing failed, navigation log unavailable